createdAt,value
2023-02-13T00:04:12.598Z,19.3
2023-02-13T00:09:18.597Z,19.3
2023-02-13T00:14:24.661Z,19.3
2023-02-13T00:19:30.744Z,19.3
2023-02-13T00:24:36.801Z,19.3
2023-02-13T00:29:42.832Z,19.3
2023-02-13T00:34:48.920Z,19.3
2023-02-13T00:39:54.931Z,19.3
2023-02-13T00:45:01.019Z,19.2
2023-02-13T00:50:07.073Z,19.2
2023-02-13T00:55:13.102Z,19.2
2023-02-13T01:05:27.133Z,19.2
2023-02-13T01:10:33.136Z,19.2
2023-02-13T01:15:41.095Z,19.2
2023-02-13T01:20:47.159Z,19.2
2023-02-13T01:25:53.203Z,19.2
2023-02-13T01:30:59.787Z,19.3
2023-02-13T01:36:05.334Z,19.3
2023-02-13T01:41:11.370Z,19.3
2023-02-13T01:46:17.433Z,19.3
2023-02-13T01:51:23.476Z,19.3
2023-02-13T01:56:29.522Z,19.3
2023-02-13T02:01:35.616Z,19.3
2023-02-13T02:06:41.659Z,19.3
2023-02-13T02:11:47.663Z,19.2
2023-02-13T02:16:53.761Z,19.2
2023-02-13T02:21:59.808Z,19.2
2023-02-13T02:27:05.891Z,19.1
2023-02-13T02:32:11.904Z,19.1
2023-02-13T02:37:17.987Z,19.1
2023-02-13T02:42:24.023Z,19.2
2023-02-13T02:47:30.071Z,19.2
2023-02-13T02:52:36.165Z,19.2
2023-02-13T02:57:42.186Z,19.2
2023-02-13T03:02:48.230Z,19.2
2023-02-13T03:07:54.308Z,19.2
2023-02-13T03:13:00.329Z,19.3
2023-02-13T03:18:06.385Z,19.3
2023-02-13T03:23:12.474Z,19.3
2023-02-13T03:28:18.563Z,19.3
2023-02-13T03:33:24.548Z,19.3
2023-02-13T03:38:30.643Z,19.3
2023-02-13T03:43:36.667Z,19.3
2023-02-13T03:48:42.718Z,19.3
2023-02-13T03:53:48.810Z,19.2
2023-02-13T03:58:54.939Z,19.2
2023-02-13T04:04:00.866Z,19.2
2023-02-13T04:09:06.961Z,19.2
2023-02-13T04:14:12.981Z,19.2
2023-02-13T04:19:19.044Z,19.2
2023-02-13T04:24:25.135Z,19.1
2023-02-13T04:29:31.143Z,19.1
2023-02-13T04:34:37.236Z,19.1
2023-02-13T04:39:43.307Z,19.1
2023-02-13T04:44:49.317Z,19.1
2023-02-13T04:49:55.391Z,19.1
2023-02-13T04:55:01.461Z,19.1
2023-02-13T05:00:07.502Z,19.1
2023-02-13T05:05:13.527Z,19.1
2023-02-13T05:10:19.631Z,19.1
2023-02-13T05:15:25.799Z,19.1
2023-02-13T05:20:31.767Z,19.2
2023-02-13T05:25:37.800Z,19.3
2023-02-13T05:30:43.843Z,19.4
2023-02-13T05:35:49.857Z,19.5
2023-02-13T05:40:56.469Z,19.6
2023-02-13T05:46:02.026Z,19.7
2023-02-13T05:51:08.058Z,19.8
2023-02-13T05:56:14.116Z,19.8
2023-02-13T06:01:20.145Z,19.9
2023-02-13T06:06:26.236Z,19.9
2023-02-13T06:11:32.278Z,20
2023-02-13T06:16:38.314Z,20.1
2023-02-13T06:21:44.351Z,20.1
2023-02-13T06:26:50.451Z,20.2
2023-02-13T06:31:56.523Z,20.2
2023-02-13T06:37:02.549Z,20.3
2023-02-13T06:42:08.639Z,20.3
2023-02-13T06:47:14.640Z,20.4
2023-02-13T06:52:20.729Z,20.4
2023-02-13T06:57:26.812Z,20.4
2023-02-13T07:02:32.847Z,20.5
2023-02-13T07:07:38.879Z,20.5
2023-02-13T07:12:47.412Z,20.5
2023-02-13T07:17:50.974Z,20.5
2023-02-13T07:22:57.028Z,20.5
2023-02-13T07:28:03.169Z,20.5
2023-02-13T07:33:09.153Z,20.5
2023-02-13T07:38:15.220Z,20.5
2023-02-13T07:43:21.275Z,20.5
2023-02-13T07:48:27.330Z,20.5
2023-02-13T07:53:33.369Z,20.5
2023-02-13T07:58:39.444Z,20.6
2023-02-13T08:03:45.534Z,20.6
2023-02-13T08:08:51.524Z,20.6
2023-02-13T08:13:57.600Z,20.6
2023-02-13T08:19:03.630Z,20.5
2023-02-13T08:24:09.677Z,20.5
2023-02-13T08:29:15.796Z,20.5
2023-02-13T08:34:21.784Z,20.6
2023-02-13T08:39:27.846Z,20.6
2023-02-13T08:44:33.911Z,20.6
2023-02-13T08:49:39.944Z,20.7
2023-02-13T08:54:46.011Z,20.7
2023-02-13T08:59:52.106Z,20.7
2023-02-13T09:04:58.129Z,20.7
2023-02-13T09:10:04.183Z,20.8
2023-02-13T09:15:10.292Z,20.8
2023-02-13T09:20:16.415Z,20.8
2023-02-13T09:25:22.319Z,20.9
2023-02-13T09:30:28.424Z,20.9
2023-02-13T09:35:34.484Z,20.9
2023-02-13T09:40:40.492Z,20.9
2023-02-13T09:45:46.591Z,21
2023-02-13T09:50:52.625Z,21
2023-02-13T09:55:58.954Z,21
2023-02-13T10:01:04.797Z,21.1
2023-02-13T10:06:10.775Z,21.1
2023-02-13T10:16:25.020Z,21.1
2023-02-13T10:21:30.801Z,21.1
2023-02-13T10:26:37.980Z,21.1
2023-02-13T10:31:44.211Z,21.1
2023-02-13T10:36:50.094Z,21.1
2023-02-13T10:41:56.181Z,21.2
2023-02-13T10:47:02.245Z,21.2
2023-02-13T10:52:08.259Z,21.2
2023-02-13T10:57:14.344Z,21.2
2023-02-13T11:02:20.402Z,21.3
2023-02-13T11:07:26.444Z,21.3
2023-02-13T11:12:32.526Z,21.3
2023-02-13T11:17:38.614Z,21.3
2023-02-13T11:22:44.604Z,21.3
2023-02-13T11:27:50.659Z,21.4
2023-02-13T11:32:56.747Z,21.4
2023-02-13T11:38:02.780Z,21.4
2023-02-13T11:43:08.856Z,21.4
2023-02-13T11:48:14.917Z,21.4
2023-02-13T11:53:20.946Z,21.4
2023-02-13T11:58:27.319Z,21.3
2023-02-13T12:03:33.292Z,21.3
2023-02-13T12:08:39.133Z,21.3
2023-02-13T12:13:45.135Z,21.3
2023-02-13T12:18:51.216Z,21.3
2023-02-13T12:23:57.248Z,21.3
2023-02-13T12:29:03.351Z,21.3
2023-02-13T12:34:09.424Z,21.3
2023-02-13T12:39:15.419Z,21.3
2023-02-13T12:44:21.496Z,21.4
2023-02-13T12:49:27.557Z,21.4
2023-02-13T12:54:33.590Z,21.4
2023-02-13T12:59:39.701Z,21.5
2023-02-13T13:04:45.729Z,21.4
2023-02-13T13:14:59.674Z,21.2
2023-02-13T13:20:05.758Z,21.2
2023-02-13T13:25:11.831Z,21.2
2023-02-13T13:30:17.982Z,21.3
2023-02-13T13:35:23.933Z,21.4
2023-02-13T13:40:29.952Z,21.4
2023-02-13T13:45:36.000Z,21.4
2023-02-13T13:50:42.089Z,21.5
2023-02-13T13:55:48.129Z,21.5
2023-02-13T14:00:54.175Z,21.5
2023-02-13T14:06:00.243Z,21.5
2023-02-13T14:11:06.301Z,21.5
2023-02-13T14:16:12.425Z,21.5
2023-02-13T14:21:18.419Z,21.5
2023-02-13T14:26:24.461Z,21.5
2023-02-13T14:31:30.688Z,21.4
2023-02-13T14:36:36.590Z,21.4
2023-02-13T14:41:43.245Z,21.4
2023-02-13T14:46:49.110Z,21.4
2023-02-13T14:51:54.769Z,21.4
2023-02-13T14:57:00.787Z,21.4
2023-02-13T15:02:06.868Z,21.3
2023-02-13T15:07:12.965Z,21.3
2023-02-13T15:12:18.945Z,21.3
2023-02-13T15:17:25.038Z,21.2
2023-02-13T15:22:31.122Z,21.2
2023-02-13T15:27:37.146Z,21.2
2023-02-13T15:32:43.194Z,21.2
2023-02-13T15:37:49.289Z,21.1
2023-02-13T15:42:55.325Z,21
2023-02-13T15:48:01.382Z,21
2023-02-13T15:53:07.457Z,21
2023-02-13T15:58:13.490Z,20.9
2023-02-13T16:03:19.524Z,20.9
2023-02-13T16:08:25.592Z,20.9
2023-02-13T16:13:31.622Z,21
2023-02-13T16:18:37.694Z,20.9
2023-02-13T16:23:43.778Z,20.9
2023-02-13T16:28:49.789Z,20.9
2023-02-13T16:33:55.836Z,20.9
2023-02-13T16:39:01.940Z,20.8
2023-02-13T16:44:07.976Z,20.8
2023-02-13T16:49:14.022Z,20.7
2023-02-13T16:54:20.099Z,20.7
2023-02-13T16:59:26.147Z,20.6
2023-02-13T17:04:32.188Z,20.6
2023-02-13T17:09:38.294Z,20.6
2023-02-13T17:14:44.306Z,20.6
2023-02-13T17:19:50.348Z,20.6
2023-02-13T17:24:56.428Z,20.6
2023-02-13T17:30:02.705Z,20.6
2023-02-13T17:35:08.513Z,20.6
2023-02-13T17:40:14.600Z,20.6
2023-02-13T17:45:20.617Z,20.6
2023-02-13T17:50:26.682Z,20.5
2023-02-13T17:55:32.784Z,20.5
2023-02-13T18:00:38.781Z,20.4
2023-02-13T18:05:44.848Z,20.4
2023-02-13T18:10:50.944Z,20.4
2023-02-13T18:15:58.833Z,20.4
2023-02-13T18:21:04.895Z,20.4
2023-02-13T18:26:10.942Z,20.4
2023-02-13T18:31:17.086Z,20.4
2023-02-13T18:36:23.059Z,20.4
2023-02-13T18:41:29.146Z,20.4
2023-02-13T18:46:35.167Z,20.4
2023-02-13T18:51:42.342Z,20.4
2023-02-13T18:56:48.428Z,20.4
2023-02-13T19:01:54.441Z,20.4
2023-02-13T19:07:00.503Z,20.4
2023-02-13T19:12:06.593Z,20.3
2023-02-13T19:17:12.609Z,20.3
2023-02-13T19:22:18.679Z,20.3
2023-02-13T19:27:24.741Z,20.3
2023-02-13T19:32:30.780Z,20.3
2023-02-13T19:37:43.954Z,20.3
2023-02-13T19:42:43.013Z,20.3
2023-02-13T19:47:48.961Z,20.3
2023-02-13T19:52:54.993Z,20.3
2023-02-13T19:58:01.084Z,20.3
2023-02-13T20:03:07.190Z,20.3
2023-02-13T20:08:13.192Z,20.3
2023-02-13T20:13:19.265Z,20.3
2023-02-13T20:18:25.297Z,20.3
2023-02-13T20:23:31.339Z,20.2
2023-02-13T20:28:37.420Z,20.2
2023-02-13T20:33:43.467Z,20.2
2023-02-13T20:38:49.643Z,20.1
2023-02-13T20:43:55.724Z,20.1
2023-02-13T20:49:01.687Z,20.1
2023-02-13T20:54:07.664Z,20.1
2023-02-13T20:59:13.770Z,20.1
2023-02-13T21:04:19.789Z,20.2
2023-02-13T21:09:25.825Z,20.2
2023-02-13T21:14:31.900Z,20.2
2023-02-13T21:19:37.948Z,20.2
2023-02-13T21:24:43.995Z,20.2
2023-02-13T21:29:50.113Z,20.2
2023-02-13T21:34:56.106Z,20.2
2023-02-13T21:40:02.176Z,20.2
2023-02-13T21:45:08.266Z,20.2
2023-02-13T21:50:14.267Z,20.2
2023-02-13T21:55:20.322Z,20.1
2023-02-13T22:00:26.433Z,20.1
2023-02-13T22:05:32.446Z,20.1
2023-02-13T22:10:38.527Z,20.1
2023-02-13T22:15:44.581Z,20.1
2023-02-13T22:20:50.603Z,20.1
2023-02-13T22:25:56.675Z,20.1
2023-02-13T22:31:03.294Z,20.1
2023-02-13T22:36:08.791Z,20.1
2023-02-13T22:41:14.859Z,20.1
2023-02-13T22:46:20.962Z,20.1
2023-02-13T22:51:26.949Z,20.1
2023-02-13T22:56:33.023Z,20.1
2023-02-13T23:01:39.120Z,20.2
2023-02-13T23:06:45.123Z,20.2
2023-02-13T23:11:51.159Z,20.2
2023-02-13T23:16:57.257Z,20.2
2023-02-13T23:22:03.266Z,20.1
2023-02-13T23:27:09.336Z,20.1
2023-02-13T23:32:15.822Z,20.1
2023-02-13T23:37:21.453Z,20
2023-02-13T23:42:27.516Z,20
2023-02-13T23:47:33.609Z,20
2023-02-13T23:52:39.605Z,20
2023-02-13T23:57:45.659Z,20
